createdAt,value
2023-03-15T00:01:14.812Z,101249.00
2023-03-15T00:03:42.768Z,101253.03
2023-03-15T00:06:09.527Z,101249.59
2023-03-15T00:08:36.161Z,101244.66
2023-03-15T00:11:02.781Z,101249.72
2023-03-15T00:13:29.683Z,101242.06
2023-03-15T00:16:00.807Z,101251.25
2023-03-15T00:18:27.996Z,101247.44
2023-03-15T00:20:54.767Z,101260.94
2023-03-15T00:23:21.533Z,101252.09
2023-03-15T00:25:50.723Z,101250.63
2023-03-15T00:28:17.512Z,101250.63
2023-03-15T00:30:44.389Z,101256.28
2023-03-15T00:33:14.895Z,101255.00
2023-03-15T00:35:44.344Z,101257.81
2023-03-15T00:38:11.649Z,101260.00
2023-03-15T00:40:38.448Z,101256.66
2023-03-15T00:43:05.305Z,101260.00
2023-03-15T00:45:32.030Z,101266.13
2023-03-15T00:47:58.487Z,101261.47
2023-03-15T00:50:24.866Z,101266.31
2023-03-15T00:52:51.258Z,101273.16
2023-03-15T00:55:19.655Z,101271.13
2023-03-15T00:57:46.589Z,101270.13
2023-03-15T01:00:20.092Z,101273.63
2023-03-15T01:02:47.074Z,101284.47
2023-03-15T01:05:14.116Z,101282.16
2023-03-15T01:07:40.841Z,101281.69
2023-03-15T01:10:07.976Z,101296.00
2023-03-15T01:12:34.860Z,101292.34
2023-03-15T01:15:03.525Z,101303.50
2023-03-15T01:17:29.944Z,101295.31
2023-03-15T01:19:56.358Z,101303.97
2023-03-15T01:22:22.849Z,101303.97
2023-03-15T01:24:49.289Z,101303.97
2023-03-15T01:27:15.837Z,101312.19
2023-03-15T01:29:42.337Z,101309.66
2023-03-15T01:32:08.817Z,101309.84
2023-03-15T01:34:36.357Z,101309.84
2023-03-15T01:37:03.073Z,101316.38
2023-03-15T01:39:30.730Z,101321.03
2023-03-15T01:41:57.405Z,101323.69
2023-03-15T01:44:24.379Z,101327.72
2023-03-15T01:46:50.948Z,101325.41
2023-03-15T01:49:26.882Z,101326.72
2023-03-15T01:51:54.439Z,101329.41
2023-03-15T01:54:26.864Z,101326.91
2023-03-15T01:57:18.824Z,101331.06
2023-03-15T02:00:11.269Z,101323.72
2023-03-15T02:02:47.054Z,101334.25
2023-03-15T02:05:20.312Z,101334.06
2023-03-15T02:07:50.046Z,101338.72
2023-03-15T02:10:23.165Z,101335.72
2023-03-15T02:12:52.123Z,101341.41
2023-03-15T02:15:18.986Z,101342.59
2023-03-15T02:17:47.256Z,101341.41
2023-03-15T02:20:32.787Z,101348.56
2023-03-15T02:23:03.580Z,101346.09
2023-03-15T02:25:44.101Z,101349.09
2023-03-15T02:28:13.106Z,101352.25
2023-03-15T02:30:40.017Z,101365.47
2023-03-15T02:33:14.426Z,101366.44
2023-03-15T02:35:40.823Z,101362.94
2023-03-15T02:38:07.145Z,101366.78
2023-03-15T02:40:33.774Z,101368.16
2023-03-15T02:43:16.062Z,101380.13
2023-03-15T02:45:42.711Z,101385.47
2023-03-15T02:48:10.967Z,101379.81
2023-03-15T02:50:37.557Z,101389.00
2023-03-15T02:53:04.071Z,101392.66
2023-03-15T02:55:32.719Z,101398.81
2023-03-15T02:58:00.707Z,101401.16
2023-03-15T03:00:27.189Z,101406.81
2023-03-15T03:02:53.605Z,101405.66
2023-03-15T03:05:20.239Z,101420.81
2023-03-15T03:07:46.936Z,101415.63
2023-03-15T03:10:15.982Z,101424.31
2023-03-15T03:12:42.702Z,101430.13
2023-03-15T03:15:10.421Z,101432.97
2023-03-15T03:17:38.384Z,101438.78
2023-03-15T03:20:09.820Z,101444.81
2023-03-15T03:22:37.574Z,101449.44
2023-03-15T03:25:06.244Z,101454.09
2023-03-15T03:27:36.500Z,101458.56
2023-03-15T03:30:08.884Z,101459.94
2023-03-15T03:32:35.618Z,101459.44
2023-03-15T03:35:02.139Z,101457.28
2023-03-15T03:37:30.813Z,101467.09
2023-03-15T03:39:58.098Z,101477.44
2023-03-15T03:42:24.609Z,101479.06
2023-03-15T03:44:50.978Z,101484.72
2023-03-15T03:47:17.310Z,101486.72
2023-03-15T03:49:43.703Z,101491.72
2023-03-15T03:52:10.331Z,101493.75
2023-03-15T03:54:36.733Z,101491.06
2023-03-15T03:57:03.511Z,101493.41
2023-03-15T03:59:29.991Z,101493.72
2023-03-15T04:01:56.341Z,101494.03
2023-03-15T04:04:22.716Z,101505.69
2023-03-15T04:06:50.763Z,101513.88
2023-03-15T04:09:17.426Z,101513.72
2023-03-15T04:11:44.313Z,101509.41
2023-03-15T04:14:12.285Z,101507.25
2023-03-15T04:16:38.887Z,101515.91
2023-03-15T04:19:05.600Z,101530.22
2023-03-15T04:21:32.243Z,101528.91
2023-03-15T04:24:00.202Z,101533.06
2023-03-15T04:26:30.653Z,101537.69
2023-03-15T04:28:58.728Z,101539.38
2023-03-15T04:31:28.943Z,101542.22
2023-03-15T04:33:56.234Z,101547.38
2023-03-15T04:36:23.708Z,101552.19
2023-03-15T04:38:50.555Z,101554.34
2023-03-15T04:41:18.336Z,101558.66
2023-03-15T04:43:45.214Z,101558.97
2023-03-15T04:46:11.735Z,101560.97
2023-03-15T04:48:38.389Z,101565.63
2023-03-15T04:51:04.869Z,101577.25
2023-03-15T04:53:31.565Z,101573.94
2023-03-15T04:55:58.162Z,101578.75
2023-03-15T04:58:24.633Z,101580.41
2023-03-15T05:00:53.188Z,101583.84
2023-03-15T05:03:20.716Z,101586.53
2023-03-15T05:05:47.231Z,101592.84
2023-03-15T05:08:13.614Z,101598.50
2023-03-15T05:10:40.022Z,101603.81
2023-03-15T05:13:06.692Z,101601.78
2023-03-15T05:15:33.169Z,101606.09
2023-03-15T05:17:59.750Z,101608.75
2023-03-15T05:20:26.247Z,101619.28
2023-03-15T05:22:53.380Z,101632.72
2023-03-15T05:25:19.973Z,101639.75
2023-03-15T05:27:46.508Z,101639.38
2023-03-15T05:30:17.008Z,101636.84
2023-03-15T05:32:45.059Z,101643.72
2023-03-15T05:35:12.852Z,101652.38
2023-03-15T05:37:39.412Z,101652.06
2023-03-15T05:40:08.140Z,101643.78
2023-03-15T05:42:35.079Z,101653.09
2023-03-15T05:45:01.532Z,101650.28
2023-03-15T05:47:27.945Z,101657.59
2023-03-15T05:49:54.368Z,101651.81
2023-03-15T05:52:20.706Z,101661.13
2023-03-15T05:54:47.329Z,101660.16
2023-03-15T05:57:13.700Z,101666.47
2023-03-15T05:59:40.407Z,101674.63
2023-03-15T06:02:07.186Z,101683.81
2023-03-15T06:04:33.614Z,101691.13
2023-03-15T06:07:00.114Z,101697.28
2023-03-15T06:09:26.738Z,101696.47
2023-03-15T06:11:53.613Z,101708.75
2023-03-15T06:14:19.992Z,101706.63
2023-03-15T06:16:46.371Z,101708.16
2023-03-15T06:19:13.805Z,101722.84
2023-03-15T06:21:40.150Z,101726.84
2023-03-15T06:24:07.070Z,101727.28
2023-03-15T06:26:33.466Z,101723.34
2023-03-15T06:28:59.913Z,101728.47
2023-03-15T06:31:26.326Z,101724.03
2023-03-15T06:33:52.686Z,101735.09
2023-03-15T06:36:19.031Z,101737.44
2023-03-15T06:38:45.453Z,101745.59
2023-03-15T06:41:15.258Z,101752.44
2023-03-15T06:43:42.129Z,101747.28
2023-03-15T06:46:08.588Z,101741.31
2023-03-15T06:48:35.025Z,101753.53
2023-03-15T06:51:01.425Z,101766.06
2023-03-15T06:53:27.843Z,101760.72
2023-03-15T06:55:54.231Z,101764.06
2023-03-15T06:58:20.628Z,101763.38
2023-03-15T07:00:48.455Z,101770.06
2023-03-15T07:03:15.126Z,101774.69
2023-03-15T07:05:41.795Z,101789.00
2023-03-15T07:08:08.350Z,101797.91
2023-03-15T07:10:34.759Z,101797.94
2023-03-15T07:13:01.228Z,101790.44
2023-03-15T07:15:28.408Z,101793.06
2023-03-15T07:17:54.809Z,101799.38
2023-03-15T07:20:21.268Z,101803.03
2023-03-15T07:22:47.781Z,101799.75
2023-03-15T07:25:23.650Z,101800.53
2023-03-15T07:27:51.069Z,101807.75
2023-03-15T07:30:18.022Z,101814.59
2023-03-15T07:32:45.025Z,101817.28
2023-03-15T07:35:13.499Z,101821.81
2023-03-15T07:37:44.318Z,101823.91
2023-03-15T07:40:12.601Z,101828.78
2023-03-15T07:42:40.079Z,101828.72
2023-03-15T07:45:07.663Z,101828.31
2023-03-15T07:47:34.671Z,101828.03
2023-03-15T07:50:01.437Z,101841.34
2023-03-15T07:52:27.809Z,101843.25
2023-03-15T07:54:54.226Z,101847.44
2023-03-15T07:57:20.770Z,101850.13
2023-03-15T07:59:47.302Z,101854.84
2023-03-15T08:02:14.754Z,101852.34
2023-03-15T08:04:41.266Z,101860.63
2023-03-15T08:07:07.850Z,101864.75
2023-03-15T08:09:34.760Z,101866.09
2023-03-15T08:12:01.839Z,101877.41
2023-03-15T08:14:29.159Z,101875.38
2023-03-15T08:16:55.682Z,101872.53
2023-03-15T08:19:22.241Z,101873.00
2023-03-15T08:21:48.743Z,101873.59
2023-03-15T08:24:15.562Z,101877.13
2023-03-15T08:26:44.917Z,101876.88
2023-03-15T08:29:11.586Z,101871.03
2023-03-15T08:31:38.439Z,101886.66
2023-03-15T08:34:04.933Z,101889.19
2023-03-15T08:36:32.570Z,101888.69
2023-03-15T08:38:59.086Z,101894.84
2023-03-15T08:41:25.498Z,101899.88
2023-03-15T08:43:52.033Z,101896.91
2023-03-15T08:46:18.574Z,101905.38
2023-03-15T08:48:48.056Z,101903.88
2023-03-15T08:51:15.131Z,101913.19
2023-03-15T08:53:41.580Z,101908.06
2023-03-15T08:56:08.995Z,101913.63
2023-03-15T08:58:35.806Z,101910.53
2023-03-15T09:01:02.159Z,101910.19
2023-03-15T09:03:28.948Z,101913.19
2023-03-15T09:05:57.797Z,101909.88
2023-03-15T09:08:25.240Z,101917.56
2023-03-15T09:10:58.389Z,101915.97
2023-03-15T09:13:25.514Z,101913.81
2023-03-15T09:15:53.428Z,101911.34
2023-03-15T09:18:20.851Z,101910.06
2023-03-15T09:20:47.414Z,101918.75
2023-03-15T09:23:14.195Z,101913.09
2023-03-15T09:25:40.986Z,101920.44
2023-03-15T09:28:10.289Z,101912.84
2023-03-15T09:30:38.359Z,101910.81
2023-03-15T09:33:05.122Z,101903.94
2023-03-15T09:35:31.765Z,101906.78
2023-03-15T09:37:58.145Z,101909.44
2023-03-15T09:40:47.173Z,101917.94
2023-03-15T09:43:49.361Z,101911.72
2023-03-15T09:46:25.968Z,101910.50
2023-03-15T09:49:07.958Z,101919.56
2023-03-15T09:51:42.466Z,101915.50
2023-03-15T09:54:18.721Z,101926.66
2023-03-15T09:57:05.047Z,101917.47
2023-03-15T09:59:41.656Z,101927.53
2023-03-15T10:02:24.517Z,101928.44
2023-03-15T10:05:01.222Z,101920.94
2023-03-15T10:07:27.654Z,101922.13
2023-03-15T10:09:54.502Z,101922.13
2023-03-15T10:12:29.014Z,101920.13
2023-03-15T10:15:30.690Z,101917.94
2023-03-15T10:18:00.000Z,101909.19
2023-03-15T10:20:36.697Z,101910.44
2023-03-15T10:23:14.545Z,101909.59
2023-03-15T10:25:41.055Z,101903.34
2023-03-15T10:28:13.913Z,101899.28
2023-03-15T10:30:47.260Z,101907.59
2023-03-15T10:33:15.763Z,101917.06
2023-03-15T10:35:43.107Z,101908.84
2023-03-15T10:38:20.938Z,101918.06
2023-03-15T10:40:50.253Z,101923.94
2023-03-15T10:43:26.341Z,101927.38
2023-03-15T10:46:21.232Z,101933.88
2023-03-15T10:48:59.466Z,101933.88
2023-03-15T10:51:33.061Z,101939.13
2023-03-15T10:54:07.310Z,101947.25
2023-03-15T10:56:51.680Z,101954.88
2023-03-15T10:59:24.476Z,101953.22
2023-03-15T11:02:07.351Z,101968.47
2023-03-15T11:04:34.520Z,101968.44
2023-03-15T11:07:03.710Z,101965.81
2023-03-15T11:09:45.799Z,101970.38
2023-03-15T11:12:24.589Z,101962.78
2023-03-15T11:15:13.968Z,101986.09
2023-03-15T11:17:46.557Z,101987.78
2023-03-15T11:20:31.272Z,101974.09
2023-03-15T11:23:13.457Z,101979.47
2023-03-15T11:25:40.029Z,101977.13
2023-03-15T11:28:11.114Z,101979.38
2023-03-15T11:30:40.801Z,101973.72
2023-03-15T11:33:09.389Z,101972.69
2023-03-15T11:35:47.986Z,101977.25
2023-03-15T11:38:33.299Z,101978.13
2023-03-15T11:41:00.286Z,101979.00
2023-03-15T11:43:55.009Z,101983.56
2023-03-15T11:46:28.021Z,101971.44
2023-03-15T11:49:12.925Z,101977.63
2023-03-15T11:51:39.815Z,101963.78
2023-03-15T11:54:15.518Z,101970.41
2023-03-15T11:57:03.522Z,101967.69
2023-03-15T11:59:35.657Z,101963.50
2023-03-15T12:02:11.207Z,101963.03
2023-03-15T12:04:47.092Z,101967.75
2023-03-15T12:07:19.688Z,101957.03
2023-03-15T12:09:56.493Z,101963.72
2023-03-15T12:12:25.738Z,101961.53
2023-03-15T12:15:14.017Z,101969.81
2023-03-15T12:17:56.860Z,101967.09
2023-03-15T12:20:49.388Z,101971.53
2023-03-15T12:23:18.568Z,101967.66
2023-03-15T12:25:55.919Z,101978.44
2023-03-15T12:28:46.467Z,101967.53
2023-03-15T12:31:14.325Z,101968.13
2023-03-15T12:33:51.409Z,101969.84
2023-03-15T12:36:36.044Z,101972.03
2023-03-15T12:39:17.227Z,101966.53
2023-03-15T12:41:49.799Z,101963.81
2023-03-15T12:44:22.038Z,101961.63
2023-03-15T12:46:48.314Z,101970.97
2023-03-15T12:49:23.539Z,101957.47
2023-03-15T12:52:06.520Z,101957.78
2023-03-15T12:54:51.368Z,101971.97
2023-03-15T12:57:22.553Z,101968.88
2023-03-15T13:00:00.853Z,101971.94
2023-03-15T13:02:42.834Z,101963.09
2023-03-15T13:05:09.932Z,101969.88
2023-03-15T13:08:01.101Z,101961.00
2023-03-15T13:10:50.785Z,101960.28
2023-03-15T13:13:26.175Z,101966.69
2023-03-15T13:16:16.857Z,101951.50
2023-03-15T13:18:55.418Z,101951.69
2023-03-15T13:21:28.647Z,101942.97
2023-03-15T13:23:59.005Z,101946.75
2023-03-15T14:09:40.082Z,101970.38
2023-03-15T14:12:18.539Z,101968.91
2023-03-15T14:14:53.234Z,101966.47
2023-03-15T14:17:31.588Z,101971.22
2023-03-15T14:20:09.936Z,101964.41
2023-03-15T14:22:36.843Z,101967.69
2023-03-15T14:25:04.391Z,101972.63
2023-03-15T14:27:32.128Z,101983.56
2023-03-15T14:30:02.266Z,101968.13
2023-03-15T14:32:34.000Z,101976.06
2023-03-15T14:35:18.502Z,101976.56
2023-03-15T14:37:45.690Z,101981.88
2023-03-15T14:40:14.995Z,101982.19
2023-03-15T14:42:42.594Z,101978.31
2023-03-15T14:45:11.243Z,101968.97
2023-03-15T14:47:55.418Z,101968.59
2023-03-15T14:50:25.146Z,101970.06
2023-03-15T14:52:51.992Z,101968.09
2023-03-15T14:55:21.217Z,101970.84
2023-03-15T14:57:47.676Z,101965.81
2023-03-15T15:00:20.596Z,101968.97
2023-03-15T15:02:55.701Z,101962.81
2023-03-15T15:05:26.656Z,101959.72
2023-03-15T15:08:01.314Z,101961.50
2023-03-15T15:10:28.055Z,101953.81
2023-03-15T15:13:05.624Z,101960.16
2023-03-15T15:15:43.969Z,101952.09
2023-03-15T15:18:21.208Z,101958.56
2023-03-15T15:20:47.918Z,101953.53
2023-03-15T15:23:25.337Z,101954.13
2023-03-15T15:25:55.990Z,101950.19
2023-03-15T15:28:33.878Z,101943.22
2023-03-15T15:31:01.592Z,101949.34
2023-03-15T15:33:29.170Z,101949.41
2023-03-15T15:35:57.446Z,101949.53
2023-03-15T15:38:30.793Z,101938.28
2023-03-15T15:40:59.485Z,101935.31
2023-03-15T15:43:25.839Z,101937.88
2023-03-15T15:45:52.300Z,101940.34
2023-03-15T15:48:18.675Z,101930.41
2023-03-15T15:50:45.041Z,101934.75
2023-03-15T15:53:16.769Z,101920.69
2023-03-15T15:55:44.341Z,101924.94
2023-03-15T15:58:12.546Z,101926.28
2023-03-15T16:00:40.593Z,101927.34
2023-03-15T16:03:15.033Z,101930.06
2023-03-15T16:05:42.391Z,101923.91
2023-03-15T16:08:24.060Z,101928.28
2023-03-15T16:10:50.776Z,101928.50
2023-03-15T16:13:17.783Z,101929.25
2023-03-15T16:15:44.437Z,101930.91
2023-03-15T16:18:12.200Z,101923.81
2023-03-15T16:20:40.389Z,101936.66
2023-03-15T16:23:07.289Z,101931.66
2023-03-15T16:25:36.512Z,101926.16
2023-03-15T16:28:04.345Z,101936.81
2023-03-15T16:30:31.973Z,101931.66
2023-03-15T16:32:58.535Z,101931.34
2023-03-15T16:35:34.440Z,101931.91
2023-03-15T16:38:01.881Z,101925.66
2023-03-15T16:40:31.689Z,101933.34
2023-03-15T16:42:58.647Z,101938.66
2023-03-15T16:45:25.879Z,101927.50
2023-03-15T16:47:52.301Z,101928.78
2023-03-15T16:50:19.609Z,101934.72
2023-03-15T16:52:48.017Z,101937.84
2023-03-15T16:55:17.434Z,101943.09
2023-03-15T16:57:44.021Z,101949.63
2023-03-15T17:00:17.172Z,101948.50
2023-03-15T17:02:48.755Z,101949.53
2023-03-15T17:05:20.839Z,101950.06
2023-03-15T17:07:49.248Z,101952.13
2023-03-15T17:10:24.740Z,101959.00
2023-03-15T17:12:52.492Z,101952.38
2023-03-15T17:15:24.399Z,101959.94
2023-03-15T17:17:52.110Z,101950.97
2023-03-15T17:20:22.165Z,101955.44
2023-03-15T17:22:50.029Z,101951.66
2023-03-15T17:25:17.123Z,101956.69
2023-03-15T17:27:45.259Z,101952.13
2023-03-15T17:30:15.013Z,101950.06
2023-03-15T17:32:41.833Z,101951.53
2023-03-15T17:35:09.069Z,101953.59
2023-03-15T17:37:36.532Z,101955.91
2023-03-15T17:40:12.483Z,101956.72
2023-03-15T17:42:39.643Z,101953.00
2023-03-15T17:45:16.730Z,101952.38
2023-03-15T17:47:43.198Z,101952.78
2023-03-15T17:50:11.295Z,101956.72
2023-03-15T17:52:37.900Z,101958.19
2023-03-15T17:55:04.987Z,101959.66
2023-03-15T17:57:31.655Z,101965.91
2023-03-15T17:59:58.166Z,101976.88
2023-03-15T18:02:25.362Z,101978.34
2023-03-15T18:04:52.201Z,101975.44
2023-03-15T18:07:18.793Z,101966.44
2023-03-15T18:09:45.261Z,101976.25
2023-03-15T18:12:13.766Z,101976.03
2023-03-15T18:14:41.822Z,101973.97
2023-03-15T18:17:10.110Z,101977.25
2023-03-15T18:19:36.834Z,101984.84
2023-03-15T18:22:03.522Z,101986.06
2023-03-15T18:24:31.737Z,101985.00
2023-03-15T18:26:58.176Z,101976.78
2023-03-15T18:29:24.727Z,101979.19
2023-03-15T18:31:51.236Z,101985.13
2023-03-15T18:34:21.850Z,101976.94
2023-03-15T18:36:48.522Z,101990.75
2023-03-15T18:39:14.913Z,101984.19
2023-03-15T18:41:41.388Z,101992.47
2023-03-15T18:44:10.729Z,101989.53
2023-03-15T18:46:37.230Z,101982.50
2023-03-15T18:49:04.799Z,101985.03
2023-03-15T18:51:31.206Z,101989.41
2023-03-15T18:53:57.589Z,101980.84
2023-03-15T18:56:34.500Z,101982.31
2023-03-15T18:59:02.249Z,101979.97
2023-03-15T19:01:29.097Z,101975.69
2023-03-15T19:03:56.225Z,101967.84
2023-03-15T19:06:23.394Z,101970.44
2023-03-15T19:08:53.484Z,101977.31
2023-03-15T19:11:21.299Z,101967.50
2023-03-15T19:13:50.900Z,101962.00
2023-03-15T19:16:18.785Z,101966.88
2023-03-15T19:18:45.289Z,101971.53
2023-03-15T19:21:11.834Z,101960.69
2023-03-15T19:23:38.647Z,101962.31
2023-03-15T19:26:05.603Z,101963.78
2023-03-15T19:28:32.100Z,101964.72
2023-03-15T19:30:58.513Z,101967.38
2023-03-15T19:33:24.884Z,101980.03
2023-03-15T19:35:52.387Z,101980.41
2023-03-15T19:38:18.957Z,101974.31
2023-03-15T19:40:45.778Z,101972.59
2023-03-15T19:43:15.197Z,101972.25
2023-03-15T19:45:41.723Z,101975.78
2023-03-15T19:48:08.079Z,101970.53
2023-03-15T19:50:34.499Z,101960.00
2023-03-15T19:53:00.938Z,101959.13
2023-03-15T19:55:29.634Z,101961.41
2023-03-15T19:57:57.826Z,101956.09
2023-03-15T20:00:25.087Z,101962.19
2023-03-15T20:02:51.495Z,101971.66
2023-03-15T20:05:20.316Z,101967.50
2023-03-15T20:07:47.410Z,101967.00
2023-03-15T20:10:14.525Z,101969.81
2023-03-15T20:12:42.565Z,101967.59
2023-03-15T20:15:13.030Z,101972.56
2023-03-15T20:17:40.166Z,101964.97
2023-03-15T20:20:13.099Z,101958.09
2023-03-15T20:22:41.641Z,101968.84
2023-03-15T20:25:09.730Z,101963.72
2023-03-15T20:27:36.927Z,101967.63
2023-03-15T20:30:04.797Z,101970.69
2023-03-15T20:32:31.313Z,101972.28
2023-03-15T20:34:57.783Z,101970.66
2023-03-15T20:37:29.476Z,101967.91
2023-03-15T20:39:56.780Z,101973.09
2023-03-15T20:42:24.324Z,101972.44
2023-03-15T20:44:50.855Z,101973.25
2023-03-15T20:47:17.323Z,101964.59
2023-03-15T20:49:44.526Z,101963.59
2023-03-15T20:52:11.355Z,101952.56
2023-03-15T20:54:38.024Z,101961.66
2023-03-15T20:57:04.950Z,101966.78
2023-03-15T20:59:32.055Z,101959.72
2023-03-15T21:01:58.802Z,101961.16
2023-03-15T21:04:26.322Z,101960.50
2023-03-15T21:06:53.009Z,101957.91
2023-03-15T21:09:19.915Z,101957.34
2023-03-15T21:11:46.792Z,101962.53
2023-03-15T21:14:13.562Z,101956.78
2023-03-15T21:16:40.244Z,101964.84
2023-03-15T21:19:06.728Z,101956.72
2023-03-15T21:21:33.250Z,101957.66
2023-03-15T21:23:59.910Z,101952.47
2023-03-15T21:26:26.612Z,101948.31
2023-03-15T21:28:53.280Z,101941.72
2023-03-15T21:31:19.991Z,101943.34
2023-03-15T21:33:48.600Z,101943.69
2023-03-15T21:36:17.736Z,101946.75
2023-03-15T21:38:44.216Z,101945.25
2023-03-15T21:41:12.465Z,101942.19
2023-03-15T21:43:41.400Z,101948.50
2023-03-15T21:46:14.085Z,101930.25
2023-03-15T21:48:43.891Z,101928.97
2023-03-15T21:51:14.678Z,101932.31
2023-03-15T21:53:41.530Z,101921.09
2023-03-15T21:56:08.116Z,101915.44
2023-03-15T21:58:34.561Z,101914.41
2023-03-15T22:01:04.515Z,101921.00
2023-03-15T22:03:32.204Z,101916.44
2023-03-15T22:05:58.706Z,101922.78
2023-03-15T22:08:25.534Z,101915.91
2023-03-15T22:10:56.561Z,101913.88
2023-03-15T22:13:23.280Z,101920.66
2023-03-15T22:15:50.265Z,101916.84
2023-03-15T22:18:16.844Z,101923.75
2023-03-15T22:20:43.190Z,101910.88
2023-03-15T22:23:11.120Z,101909.41
2023-03-15T22:25:39.957Z,101901.44
2023-03-15T22:28:07.105Z,101899.13
2023-03-15T22:30:33.864Z,101902.19
2023-03-15T22:33:00.750Z,101891.06
2023-03-15T22:35:27.451Z,101897.16
2023-03-15T22:37:56.755Z,101899.59
2023-03-15T22:40:25.609Z,101893.56
2023-03-15T22:42:53.059Z,101887.91
2023-03-15T22:45:21.231Z,101891.63
2023-03-15T22:47:48.901Z,101899.00
2023-03-15T22:50:15.697Z,101898.94
2023-03-15T22:52:42.695Z,101897.34
2023-03-15T22:55:10.763Z,101891.31
2023-03-15T22:57:37.609Z,101892.53
2023-03-15T23:00:13.816Z,101890.47
2023-03-15T23:02:44.338Z,101896.13
2023-03-15T23:05:13.289Z,101899.19
2023-03-15T23:07:43.138Z,101893.81
2023-03-15T23:10:11.368Z,101888.81
2023-03-15T23:12:37.853Z,101896.22
2023-03-15T23:15:04.898Z,101896.56
2023-03-15T23:17:31.676Z,101894.91
2023-03-15T23:19:58.084Z,101883.44
2023-03-15T23:22:24.508Z,101884.28
2023-03-15T23:24:51.546Z,101879.28
2023-03-15T23:27:17.997Z,101871.22
2023-03-15T23:29:54.103Z,101880.94
2023-03-15T23:32:21.826Z,101868.06
2023-03-15T23:34:48.297Z,101865.09
2023-03-15T23:37:15.216Z,101865.28
2023-03-15T23:39:42.368Z,101860.19
2023-03-15T23:42:11.637Z,101863.16
2023-03-15T23:44:38.227Z,101862.03
2023-03-15T23:47:05.734Z,101870.09
2023-03-15T23:49:33.338Z,101858.34
2023-03-15T23:52:05.692Z,101860.00
2023-03-15T23:54:39.660Z,101861.97
2023-03-15T23:57:07.378Z,101862.78
2023-03-15T23:59:36.010Z,101871.50
